createdAt,value
2018-12-31T00:00:01.425Z,7.88
2018-12-31T00:05:01.733Z,7.87
2018-12-31T00:20:01.736Z,7.89
2018-12-31T00:25:01.994Z,7.93
2018-12-31T00:30:01.257Z,7.92
2018-12-31T00:35:01.546Z,7.93
2018-12-31T00:40:02.530Z,8
2018-12-31T00:45:01.858Z,7.98
2018-12-31T00:50:01.151Z,8.02
2018-12-31T00:55:01.582Z,8
2018-12-31T01:00:01.858Z,8
2018-12-31T01:05:01.178Z,8.05
2018-12-31T01:10:01.490Z,8.03
2018-12-31T01:15:01.797Z,8.07
2018-12-31T01:20:02.038Z,8.06
2018-12-31T01:25:01.278Z,8.06
2018-12-31T01:30:01.591Z,8.08
2018-12-31T01:35:01.898Z,8.11
2018-12-31T01:40:01.143Z,8.11
2018-12-31T01:45:01.433Z,8.14
2018-12-31T01:50:01.727Z,8.13
2018-12-31T01:55:01.958Z,8.14
2018-12-31T02:00:01.286Z,8.14
2018-12-31T02:05:01.610Z,8.11
2018-12-31T02:10:01.980Z,8.13
2018-12-31T02:15:01.354Z,8.16
2018-12-31T02:20:01.749Z,8.16
2018-12-31T02:25:02.022Z,8.18
2018-12-31T02:30:01.292Z,8.19
2018-12-31T02:35:01.639Z,8.19
2018-12-31T02:40:01.930Z,8.17
2018-12-31T02:45:01.233Z,8.18
2018-12-31T02:50:08.510Z,8.15
2018-12-31T02:55:01.756Z,8.16
2018-12-31T03:00:02.055Z,8.2
2018-12-31T03:05:01.364Z,8.17
2018-12-31T03:10:01.655Z,8.17
2018-12-31T03:15:02.028Z,8.2
2018-12-31T03:20:01.378Z,8.19
2018-12-31T03:25:01.654Z,8.2
2018-12-31T03:30:01.916Z,8.14
2018-12-31T03:35:01.350Z,8.19
2018-12-31T03:40:01.186Z,8.19
2018-12-31T03:45:01.593Z,8.22
2018-12-31T03:50:01.861Z,8.2
2018-12-31T03:55:01.126Z,8.19
2018-12-31T04:00:01.421Z,8.22
2018-12-31T04:05:01.697Z,8.17
2018-12-31T04:10:01.982Z,8.21
2018-12-31T04:15:01.403Z,8.19
2018-12-31T04:20:01.713Z,8.12
2018-12-31T04:25:01.965Z,8.12
2018-12-31T04:30:01.257Z,8.14
2018-12-31T04:35:01.580Z,8.15
2018-12-31T04:40:01.893Z,8.14
2018-12-31T04:45:01.148Z,8.14
2018-12-31T04:50:01.423Z,8.17
2018-12-31T04:55:01.718Z,8.18
2018-12-31T05:00:02.015Z,8.19
2018-12-31T05:05:01.303Z,8.18
2018-12-31T05:10:01.568Z,8.18
2018-12-31T05:15:01.861Z,8.17
2018-12-31T05:20:01.209Z,8.22
2018-12-31T05:25:01.477Z,8.22
2018-12-31T05:30:01.759Z,8.22
2018-12-31T05:35:01.995Z,8.26
2018-12-31T05:40:02.004Z,8.3
2018-12-31T05:45:01.269Z,8.28
2018-12-31T05:50:01.565Z,8.26
2018-12-31T05:55:01.866Z,8.29
2018-12-31T06:00:01.146Z,8.31
2018-12-31T06:05:01.452Z,8.28
2018-12-31T06:10:01.714Z,8.32
2018-12-31T06:15:02.025Z,8.34
2018-12-31T06:20:01.290Z,8.3
2018-12-31T06:25:01.603Z,8.27
2018-12-31T06:30:02.259Z,8.32
2018-12-31T06:35:01.842Z,8.31
2018-12-31T06:40:01.150Z,8.31
2018-12-31T06:45:01.416Z,8.26
2018-12-31T06:50:01.714Z,8.23
2018-12-31T06:55:01.991Z,8.28
2018-12-31T07:00:01.285Z,8.29
2018-12-31T07:05:01.607Z,8.31
2018-12-31T07:10:01.905Z,8.31
2018-12-31T07:15:01.160Z,8.33
2018-12-31T07:20:01.469Z,8.34
2018-12-31T07:25:01.730Z,8.37
2018-12-31T07:30:02.084Z,8.36
2018-12-31T07:35:01.354Z,8.43
2018-12-31T07:40:01.647Z,8.37
2018-12-31T07:45:02.013Z,8.34
2018-12-31T07:50:01.286Z,8.36
2018-12-31T07:55:01.560Z,8.39
2018-12-31T08:00:01.859Z,8.33
2018-12-31T08:05:01.167Z,8.35
2018-12-31T08:10:01.434Z,8.42
2018-12-31T08:15:01.714Z,8.48
2018-12-31T08:20:01.981Z,8.47
2018-12-31T08:25:01.273Z,8.49
2018-12-31T08:30:01.635Z,8.52
2018-12-31T08:35:02.003Z,8.53
2018-12-31T08:40:01.276Z,8.53
2018-12-31T08:45:01.696Z,8.5
2018-12-31T08:50:03.210Z,8.57
2018-12-31T08:55:01.714Z,8.57
2018-12-31T09:00:02.037Z,8.58
2018-12-31T09:05:01.322Z,8.62
2018-12-31T09:10:01.598Z,8.71
2018-12-31T09:15:01.945Z,8.77
2018-12-31T09:20:01.251Z,8.79
2018-12-31T09:25:01.573Z,8.82
2018-12-31T09:30:01.876Z,8.82
2018-12-31T09:35:01.217Z,8.91
2018-12-31T09:40:01.531Z,8.82
2018-12-31T09:45:01.819Z,8.8
2018-12-31T09:50:01.096Z,8.78
2018-12-31T09:55:01.405Z,8.8
2018-12-31T10:00:01.751Z,8.87
2018-12-31T10:05:02.038Z,8.82
2018-12-31T10:10:01.283Z,8.8
2018-12-31T10:15:01.607Z,8.82
2018-12-31T10:20:01.911Z,8.78
2018-12-31T10:25:01.174Z,8.82
2018-12-31T10:30:01.455Z,8.88
2018-12-31T10:35:01.810Z,8.92
2018-12-31T10:40:02.096Z,8.95
2018-12-31T10:45:01.349Z,8.89
2018-12-31T10:50:01.656Z,8.92
2018-12-31T10:55:02.008Z,8.92
2018-12-31T11:00:01.296Z,8.93
2018-12-31T11:05:01.622Z,8.94
2018-12-31T11:10:01.895Z,8.98
2018-12-31T11:15:01.195Z,8.98
2018-12-31T11:20:01.510Z,8.97
2018-12-31T11:25:01.818Z,8.96
2018-12-31T11:30:01.117Z,8.97
2018-12-31T11:35:01.450Z,8.95
2018-12-31T11:40:01.701Z,8.93
2018-12-31T11:45:01.979Z,8.95
2018-12-31T11:50:01.260Z,8.95
2018-12-31T11:55:01.541Z,8.96
2018-12-31T12:00:01.778Z,8.9
2018-12-31T12:05:02.172Z,8.98
2018-12-31T12:10:01.447Z,9
2018-12-31T12:15:01.771Z,9.02
2018-12-31T12:20:02.046Z,9
2018-12-31T12:25:01.273Z,9.04
2018-12-31T12:30:01.533Z,9.05
2018-12-31T12:35:01.821Z,9
2018-12-31T12:40:01.147Z,9.03
2018-12-31T12:45:01.485Z,9.01
2018-12-31T12:50:01.788Z,9.07
2018-12-31T12:55:01.100Z,9.01
2018-12-31T13:00:01.209Z,8.96
2018-12-31T13:05:03.682Z,9.04
2018-12-31T13:10:01.553Z,9.07
2018-12-31T13:15:01.897Z,9.08
2018-12-31T13:20:01.237Z,9.09
2018-12-31T13:25:01.562Z,9.09
2018-12-31T13:30:01.837Z,9.07
2018-12-31T13:35:01.183Z,9.09
2018-12-31T13:40:01.507Z,9.03
2018-12-31T13:45:01.830Z,8.88
2018-12-31T13:50:01.139Z,9
2018-12-31T13:55:01.460Z,9
2018-12-31T14:00:01.776Z,8.92
2018-12-31T14:05:02.053Z,9
2018-12-31T14:10:01.328Z,8.95
2018-12-31T14:15:01.639Z,8.82
2018-12-31T14:20:01.825Z,8.97
2018-12-31T14:25:02.576Z,8.94
2018-12-31T14:30:01.954Z,8.91
2018-12-31T14:35:01.329Z,8.92
2018-12-31T14:40:01.697Z,8.88
2018-12-31T14:45:02.023Z,8.9
2018-12-31T14:50:01.358Z,8.87
2018-12-31T14:55:01.673Z,8.88
2018-12-31T15:00:02.025Z,8.75
2018-12-31T15:05:01.338Z,8.85
2018-12-31T15:10:01.668Z,8.82
2018-12-31T15:15:02.004Z,8.79
2018-12-31T15:20:01.309Z,8.78
2018-12-31T15:25:01.643Z,8.75
2018-12-31T15:30:01.806Z,8.77
2018-12-31T15:35:01.115Z,8.76
2018-12-31T15:40:01.449Z,8.72
2018-12-31T15:45:01.783Z,8.68
2018-12-31T15:50:01.099Z,8.62
2018-12-31T15:55:01.420Z,8.47
2018-12-31T16:00:01.746Z,8.47
2018-12-31T16:05:01.699Z,8.6
2018-12-31T16:10:01.219Z,8.52
2018-12-31T16:15:01.535Z,8.41
2018-12-31T16:20:01.945Z,8.53
2018-12-31T16:25:01.209Z,8.56
2018-12-31T16:30:01.491Z,8.55
2018-12-31T16:35:01.810Z,8.55
2018-12-31T16:40:01.143Z,8.56
2018-12-31T16:45:01.479Z,8.57
2018-12-31T16:50:01.786Z,8.58
2018-12-31T16:55:02.087Z,8.56
2018-12-31T17:00:01.359Z,8.57
2018-12-31T17:05:01.802Z,8.53
2018-12-31T17:10:01.120Z,8.58
2018-12-31T17:15:01.449Z,8.55
2018-12-31T17:20:01.764Z,8.58
2018-12-31T17:25:02.088Z,8.55
2018-12-31T17:30:01.355Z,8.51
2018-12-31T17:35:01.729Z,8.52
2018-12-31T17:40:02.012Z,8.49
2018-12-31T17:45:01.325Z,8.38
2018-12-31T17:50:01.827Z,8.51
2018-12-31T17:55:01.155Z,8.5
2018-12-31T18:00:01.425Z,8.49
2018-12-31T18:05:01.720Z,8.45
2018-12-31T18:10:02.019Z,8.42
2018-12-31T18:15:01.414Z,8.43
2018-12-31T18:20:01.757Z,8.42
2018-12-31T18:25:01.098Z,8.42
2018-12-31T18:30:01.449Z,8.45
2018-12-31T18:35:01.803Z,8.44
2018-12-31T18:40:01.179Z,8.47
2018-12-31T18:45:01.505Z,8.5
2018-12-31T18:50:01.806Z,8.5
2018-12-31T18:55:01.107Z,8.46
2018-12-31T19:00:01.422Z,8.5
2018-12-31T19:05:01.751Z,8.33
2018-12-31T19:10:02.133Z,8.47
2018-12-31T19:15:01.289Z,8.34
2018-12-31T19:20:01.610Z,8.47
2018-12-31T19:25:01.901Z,8.5
2018-12-31T19:30:01.203Z,8.47
2018-12-31T19:35:01.554Z,8.51
2018-12-31T19:40:01.875Z,8.51
2018-12-31T19:45:01.182Z,8.47
2018-12-31T19:50:01.509Z,8.47
2018-12-31T19:55:01.837Z,8.48
2018-12-31T20:00:01.131Z,8.42
2018-12-31T20:05:01.499Z,8.39
2018-12-31T20:10:01.752Z,8.39
2018-12-31T20:15:01.873Z,8.33
2018-12-31T20:20:01.153Z,8.3
2018-12-31T20:25:01.503Z,8.36
2018-12-31T20:30:01.832Z,8.34
2018-12-31T20:35:01.164Z,8.35
2018-12-31T20:40:01.450Z,8.38
2018-12-31T20:45:01.813Z,8.37
2018-12-31T20:50:01.093Z,8.33
2018-12-31T20:55:01.421Z,8.3
2018-12-31T21:00:01.731Z,8.37
2018-12-31T21:05:02.080Z,8.32
2018-12-31T21:10:01.353Z,8.27
2018-12-31T21:15:01.893Z,8.09
2018-12-31T21:20:01.165Z,8.26
2018-12-31T21:25:01.483Z,8.21
2018-12-31T21:30:01.663Z,8.22
2018-12-31T21:35:02.020Z,8.17
2018-12-31T21:40:01.311Z,8.21
2018-12-31T21:45:01.648Z,8.19
2018-12-31T21:50:01.953Z,8.13
2018-12-31T21:55:01.228Z,8.09
2018-12-31T22:00:01.546Z,8.08
2018-12-31T22:05:01.899Z,8.02
2018-12-31T22:10:01.296Z,8.04
2018-12-31T22:15:01.632Z,8.02
2018-12-31T22:20:01.976Z,7.84
2018-12-31T22:25:01.287Z,7.96
2018-12-31T22:30:01.663Z,7.78
2018-12-31T22:35:01.990Z,7.79
2018-12-31T22:40:01.293Z,7.88
2018-12-31T22:45:01.622Z,7.84
2018-12-31T22:50:01.946Z,7.79
2018-12-31T22:55:01.707Z,7.87
2018-12-31T23:00:02.037Z,7.7
2018-12-31T23:05:01.343Z,7.69
2018-12-31T23:10:01.613Z,7.77
2018-12-31T23:15:01.929Z,7.67
2018-12-31T23:20:01.224Z,7.61
2018-12-31T23:25:01.542Z,7.63
2018-12-31T23:30:01.671Z,7.76
2018-12-31T23:35:01.984Z,7.62
2018-12-31T23:40:01.277Z,7.6
2018-12-31T23:45:01.592Z,7.6
2018-12-31T23:50:01.911Z,7.59
2018-12-31T23:55:01.208Z,7.57
